Time;durP1;ratioP1;P1;durP2;ratioP2;P2;SDS_P1;SDS_P2;PMS_P1;PMS_P2;Temp;Humidity;BMP_temperature;BMP_pressure;BME280_temperature;BME280_humidity;BME280_pressure;Samples;Min_cycle;Max_cycle;Signal;HPM_P1;HPM_P2
2023/03/22 00:01:32;;;;;;;4.83;4.33;;;;;;;9.54;86.21;100898.97;6174355;28;20229;-75
2023/03/22 00:04:53;;;;;;;5.27;4.80;;;;;;;9.54;85.76;100904.25;6185250;28;20256;-74
2023/03/22 00:08:14;;;;;;;6.17;5.57;;;;;;;9.55;86.11;100898.00;6202856;28;20229;-74
2023/03/22 00:11:37;;;;;;;4.60;4.20;;;;;;;9.59;85.98;100897.53;6167331;28;21911;-73
2023/03/22 00:14:58;;;;;;;6.23;4.93;;;;;;;9.63;85.63;100881.41;6196709;28;20237;-73
2023/03/22 00:18:20;;;;;;;4.80;4.40;;;;;;;9.63;85.59;100884.03;6187109;28;20565;-74
2023/03/22 00:21:40;;;;;;;8.33;5.70;;;;;;;9.67;85.78;100878.28;6196638;28;20247;-74
2023/03/22 00:25:01;;;;;;;8.30;5.67;;;;;;;9.66;85.95;100876.63;6205024;28;20233;-73
2023/03/22 00:28:24;;;;;;;6.40;5.93;;;;;;;9.67;85.83;100848.47;6195494;28;20236;-73
2023/03/22 00:31:45;;;;;;;12.27;6.10;;;;;;;9.69;85.87;100857.88;6198916;28;20244;-74
2023/03/22 00:35:07;;;;;;;7.03;5.33;;;;;;;9.68;85.94;100852.75;6188750;28;20241;-74
2023/03/22 00:38:35;;;;;;;8.30;5.83;;;;;;;9.69;86.28;100863.13;6202394;28;22109;-74
2023/03/22 00:41:56;;;;;;;6.27;4.33;;;;;;;9.70;85.81;100856.06;6186131;28;20854;-73
2023/03/22 00:45:18;;;;;;;9.53;6.93;;;;;;;9.73;86.02;100856.53;6208923;28;20320;-74
2023/03/22 00:48:39;;;;;;;6.57;5.07;;;;;;;9.77;85.87;100854.41;6201857;28;20241;-74
2023/03/22 00:52:00;;;;;;;5.83;4.90;;;;;;;9.83;85.39;100853.75;6212621;28;20232;-74
2023/03/22 00:55:21;;;;;;;6.00;5.43;;;;;;;9.84;85.62;100858.03;6203909;28;20240;-73
2023/03/22 00:58:42;;;;;;;6.40;5.73;;;;;;;9.82;85.81;100842.38;6202006;28;21185;-73
2023/03/22 01:02:05;;;;;;;6.03;4.23;;;;;;;9.79;85.72;100840.06;6188711;28;20240;-74
2023/03/22 01:05:27;;;;;;;7.50;5.10;;;;;;;9.81;86.15;100838.09;6215398;28;20229;-73
2023/03/22 01:08:49;;;;;;;7.80;6.53;;;;;;;9.78;86.10;100834.97;6202686;28;20237;-72
2023/03/22 01:12:11;;;;;;;7.23;5.47;;;;;;;9.83;86.06;100835.28;6198806;28;20791;-73
2023/03/22 01:15:32;;;;;;;6.80;6.13;;;;;;;9.78;86.02;100830.50;6190085;28;20233;-73
2023/03/22 01:18:54;;;;;;;6.17;5.60;;;;;;;9.80;86.05;100828.53;6184486;28;20237;-73
2023/03/22 01:22:15;;;;;;;6.47;5.87;;;;;;;9.79;86.30;100818.16;6194855;28;20236;-73
2023/03/22 01:25:36;;;;;;;6.30;5.70;;;;;;;9.81;86.00;100816.19;6180516;28;20237;-73
2023/03/22 01:28:57;;;;;;;5.43;4.33;;;;;;;9.79;86.07;100811.06;6168226;28;20309;-73
2023/03/22 01:32:18;;;;;;;6.10;5.10;;;;;;;9.74;86.36;100810.72;6197596;28;20245;-73
2023/03/22 01:35:41;;;;;;;6.30;5.17;;;;;;;9.73;86.39;100809.09;6183667;28;20232;-73
2023/03/22 01:39:03;;;;;;;5.53;5.03;;;;;;;9.73;86.30;100803.81;6178029;28;20222;-73
2023/03/22 01:42:28;;;;;;;11.27;7.10;;;;;;;9.70;86.50;100796.25;6193816;28;20233;-73
2023/03/22 01:45:52;;;;;;;6.27;5.50;;;;;;;9.76;86.32;100790.31;6195930;28;20240;-74
2023/03/22 01:49:23;;;;;;;6.87;5.53;;;;;;;9.74;86.15;100783.56;6213698;28;20228;-73
2023/03/22 01:52:48;;;;;;;7.80;6.10;;;;;;;9.72;86.45;100786.34;6192429;28;20229;-73
2023/03/22 01:56:17;;;;;;;6.90;6.20;;;;;;;9.67;86.65;100772.88;6192720;28;20236;-73
2023/03/22 01:59:39;;;;;;;9.53;6.17;;;;;;;9.68;87.00;100773.69;6199992;28;20244;-72
2023/03/22 02:03:18;;;;;;;6.53;5.90;;;;;;;9.64;86.62;100767.91;6173911;28;20233;-72
2023/03/22 02:06:41;;;;;;;7.93;6.77;;;;;;;9.68;86.44;100769.25;6186211;28;21790;-72
2023/03/22 02:10:15;;;;;;;9.10;6.20;;;;;;;9.66;86.44;100770.38;6200615;28;20239;-72
2023/03/22 02:14:02;;;;;;;9.23;6.53;;;;;;;9.70;86.14;100761.16;6201902;28;20321;-73
2023/03/22 02:18:00;;;;;;;8.27;6.93;;;;;;;9.69;85.89;100752.44;6151955;28;20256;-72
2023/03/22 02:21:52;;;;;;;5.10;4.60;;;;;;;9.66;86.14;100750.13;6205397;28;20351;-73
2023/03/22 02:25:40;;;;;;;13.27;5.60;;;;;;;9.68;86.24;100750.78;6199131;28;20265;-74
2023/03/22 02:29:07;;;;;;;7.30;5.50;;;;;;;9.66;86.15;100747.50;6198800;28;20260;-74
2023/03/22 02:33:00;;;;;;;8.23;6.40;;;;;;;9.66;86.24;100744.03;6182655;28;20583;-73
2023/03/22 02:36:41;;;;;;;6.60;6.10;;;;;;;9.65;86.42;100729.22;6202334;28;20255;-74
2023/03/22 02:40:13;;;;;;;7.50;5.53;;;;;;;9.61;86.50;100726.06;6194339;28;20527;-73
2023/03/22 02:43:40;;;;;;;6.53;5.47;;;;;;;9.62;86.27;100724.25;6194111;28;20536;-73
2023/03/22 02:47:07;;;;;;;7.80;5.23;;;;;;;9.63;86.49;100724.09;6188018;28;20252;-73
2023/03/22 02:50:31;;;;;;;6.37;5.63;;;;;;;9.60;86.82;100725.25;6199095;28;20221;-72
2023/03/22 02:53:56;;;;;;;6.33;5.33;;;;;;;9.58;87.03;100719.31;6193031;28;20587;-73
2023/03/22 02:57:25;;;;;;;7.10;5.43;;;;;;;9.57;86.74;100720.31;6186203;28;20515;-74
2023/03/22 03:00:54;;;;;;;7.00;6.30;;;;;;;9.56;87.04;100717.84;6201807;28;20271;-73
2023/03/22 03:04:19;;;;;;;10.77;5.40;;;;;;;9.58;86.48;100718.50;6207786;28;20233;-73
2023/03/22 03:07:43;;;;;;;4.40;4.00;;;;;;;9.53;87.01;100724.25;6204935;28;20224;-74
2023/03/22 03:11:04;;;;;;;10.17;7.40;;;;;;;9.56;87.09;100704.66;6205344;28;20220;-73
2023/03/22 03:14:28;;;;;;;6.33;5.73;;;;;;;9.52;87.09;100714.69;6196857;28;20233;-73
2023/03/22 03:18:01;;;;;;;7.43;6.73;;;;;;;9.59;86.75;100699.88;6202014;28;20233;-73
2023/03/22 03:21:31;;;;;;;6.33;5.80;;;;;;;9.63;86.19;100696.94;6194260;28;20670;-75
2023/03/22 03:25:05;;;;;;;5.90;5.40;;;;;;;9.63;85.83;100702.19;6208242;28;20829;-73
2023/03/22 03:28:37;;;;;;;6.03;5.47;;;;;;;9.63;86.25;100692.47;6186073;28;20229;-74
2023/03/22 03:32:05;;;;;;;6.57;5.20;;;;;;;9.63;86.24;100699.56;6184500;28;20233;-73
2023/03/22 03:35:27;;;;;;;5.80;4.60;;;;;;;9.69;85.48;100691.81;6195800;28;20228;-73
2023/03/22 03:38:52;;;;;;;5.50;4.27;;;;;;;9.72;85.41;100698.53;6195313;28;20241;-72
2023/03/22 03:42:16;;;;;;;4.87;4.33;;;;;;;9.76;85.38;100691.97;6182872;28;20686;-74
2023/03/22 03:45:37;;;;;;;5.57;4.70;;;;;;;9.84;84.53;100698.06;6199495;28;20241;-73
2023/03/22 03:49:03;;;;;;;5.70;5.10;;;;;;;9.95;83.50;100687.13;6179557;28;20236;-73
2023/03/22 03:52:25;;;;;;;8.03;4.27;;;;;;;10.09;82.36;100688.28;6206978;28;20232;-73
2023/03/22 03:55:46;;;;;;;5.43;4.93;;;;;;;10.10;82.32;100699.66;6190530;28;20470;-73
2023/03/22 03:59:08;;;;;;;4.57;4.17;;;;;;;10.23;81.27;100682.31;6213991;28;20241;-74
2023/03/22 04:02:29;;;;;;;4.33;3.93;;;;;;;10.28;80.64;100682.63;6180168;28;20619;-74
2023/03/22 04:05:54;;;;;;;5.77;5.17;;;;;;;10.25;81.08;100688.25;6207770;28;20267;-75
2023/03/22 04:09:16;;;;;;;4.17;3.87;;;;;;;10.26;81.02;100682.00;6215045;28;20244;-75
2023/03/22 04:12:40;;;;;;;6.30;4.97;;;;;;;10.27;81.08;100696.00;6182551;28;20913;-76
2023/03/22 04:16:06;;;;;;;5.97;3.70;;;;;;;10.24;81.04;100683.97;6206102;28;20271;-73
2023/03/22 04:19:31;;;;;;;4.93;3.67;;;;;;;10.21;81.41;100694.03;6200307;28;20272;-73
2023/03/22 04:22:53;;;;;;;4.13;3.73;;;;;;;10.27;80.52;100675.72;6173060;28;20233;-76
2023/03/22 04:26:15;;;;;;;4.97;3.90;;;;;;;10.26;80.70;100678.53;6196166;28;20232;-74
2023/03/22 04:29:53;;;;;;;5.90;4.37;;;;;;;10.23;80.79;100677.03;6215640;28;20229;-74
2023/03/22 04:33:38;;;;;;;4.73;3.47;;;;;;;10.23;80.64;100674.41;6186431;28;20309;-74
2023/03/22 04:37:12;;;;;;;5.03;4.27;;;;;;;10.24;80.78;100672.59;6184993;28;20228;-73
2023/03/22 04:40:57;;;;;;;5.37;4.60;;;;;;;10.30;80.09;100669.28;6189275;28;20237;-73
2023/03/22 04:44:36;;;;;;;5.77;4.60;;;;;;;10.25;80.46;100663.69;6199335;28;20229;-75
2023/03/22 04:47:57;;;;;;;8.23;5.00;;;;;;;10.21;80.62;100655.28;6201897;28;21140;-75
2023/03/22 04:51:18;;;;;;;4.30;3.17;;;;;;;10.26;80.18;100660.88;6201342;28;20233;-74
2023/03/22 04:54:54;;;;;;;7.27;3.80;;;;;;;10.29;79.97;100662.38;6194072;28;20231;-75
2023/03/22 04:58:20;;;;;;;4.97;4.33;;;;;;;10.26;80.02;100658.25;6211906;28;20233;-74
2023/03/22 05:01:42;;;;;;;4.73;2.70;;;;;;;10.31;79.77;100665.66;6199132;28;20228;-76
2023/03/22 05:05:07;;;;;;;4.40;4.00;;;;;;;10.30;79.65;100655.28;6210831;28;20902;-75
2023/03/22 05:08:34;;;;;;;4.43;3.97;;;;;;;10.25;80.08;100653.13;6200682;28;20260;-73
2023/03/22 05:11:56;;;;;;;5.77;4.27;;;;;;;10.26;79.89;100670.63;6202725;28;20540;-75
2023/03/22 05:15:33;;;;;;;5.63;4.30;;;;;;;10.20;80.57;100655.47;6185035;28;20232;-74
2023/03/22 05:18:57;;;;;;;6.93;5.63;;;;;;;10.22;80.21;100656.94;6197134;28;20225;-74
2023/03/22 05:22:21;;;;;;;5.17;3.53;;;;;;;10.18;80.54;100655.59;6194136;28;20264;-74
2023/03/22 05:25:45;;;;;;;5.70;5.23;;;;;;;10.25;79.96;100658.41;6197690;28;20233;-74
2023/03/22 05:29:10;;;;;;;4.50;3.27;;;;;;;10.26;79.89;100658.25;6194454;28;20229;-73
2023/03/22 05:32:50;;;;;;;4.20;3.80;;;;;;;10.25;80.05;100661.06;6191949;28;20233;-73
2023/03/22 05:36:12;;;;;;;9.10;4.60;;;;;;;10.26;80.37;100657.41;6191887;28;20244;-74
2023/03/22 05:39:48;;;;;;;7.13;3.93;;;;;;;10.22;80.32;100664.03;6203230;28;20630;-73
2023/03/22 05:43:10;;;;;;;5.60;3.87;;;;;;;10.23;80.55;100669.13;6197206;28;20241;-73
2023/03/22 05:46:35;;;;;;;4.77;3.47;;;;;;;10.25;79.92;100664.50;6199634;28;20229;-73
2023/03/22 05:50:22;;;;;;;6.80;3.53;;;;;;;10.31;79.76;100667.47;6198737;28;20237;-75
2023/03/22 05:53:44;;;;;;;3.67;3.37;;;;;;;10.32;79.69;100666.47;6199988;28;21912;-73
2023/03/22 05:57:09;;;;;;;4.13;3.77;;;;;;;10.33;79.33;100668.13;6202659;28;20228;-73
2023/03/22 06:00:31;;;;;;;4.50;4.07;;;;;;;10.36;79.38;100662.50;6180876;28;20229;-73
2023/03/22 06:04:30;;;;;;;5.40;3.77;;;;;;;10.38;78.85;100663.16;6191526;28;20256;-73
2023/03/22 06:07:57;;;;;;;5.60;3.43;;;;;;;10.42;78.92;100664.44;6181095;28;20229;-73
2023/03/22 06:11:18;;;;;;;6.63;3.70;;;;;;;10.46;78.56;100671.03;6195579;28;20276;-71
2023/03/22 06:14:39;;;;;;;3.83;3.07;;;;;;;10.49;78.54;100663.59;6197325;28;20261;-73
2023/03/22 06:18:13;;;;;;;5.37;3.33;;;;;;;10.51;78.71;100658.97;6195931;28;20585;-73
2023/03/22 06:21:38;;;;;;;4.57;3.73;;;;;;;10.55;77.92;100652.34;6195827;28;20255;-74
2023/03/22 06:25:01;;;;;;;4.50;4.10;;;;;;;10.62;78.11;100650.63;6187441;28;20556;-75
2023/03/22 06:28:29;;;;;;;3.83;3.43;;;;;;;10.72;77.62;100649.63;6176622;28;20229;-73
2023/03/22 06:31:52;;;;;;;2.40;2.20;;;;;;;10.76;77.21;100651.75;6181815;28;20232;-74
2023/03/22 06:35:14;;;;;;;6.47;3.17;;;;;;;10.81;77.05;100643.31;6171263;28;20250;-73
2023/03/22 06:38:35;;;;;;;6.00;3.00;;;;;;;10.89;77.14;100648.50;6155342;28;20229;-74
2023/03/22 06:41:58;;;;;;;6.57;3.77;;;;;;;10.85;77.10;100653.31;6150338;28;20277;-73
2023/03/22 06:45:20;;;;;;;2.73;2.43;;;;;;;10.81;77.51;100651.22;6158630;28;20257;-70
2023/03/22 06:48:42;;;;;;;5.90;3.30;;;;;;;10.78;77.55;100654.22;6154556;28;20538;-73
2023/03/22 06:52:07;;;;;;;6.10;3.67;;;;;;;10.73;77.57;100660.00;6142068;28;20298;-71
2023/03/22 06:55:32;;;;;;;4.63;2.73;;;;;;;10.70;77.79;100670.09;6123155;28;20325;-72
2023/03/22 06:58:56;;;;;;;5.67;3.87;;;;;;;10.68;78.12;100661.50;6137953;28;20241;-73
2023/03/22 07:02:17;;;;;;;5.20;3.93;;;;;;;10.69;77.61;100647.31;6141961;28;20263;-71
2023/03/22 07:06:02;;;;;;;4.27;3.87;;;;;;;10.71;77.83;100650.59;6126948;28;20328;-71
2023/03/22 07:09:25;;;;;;;5.40;4.47;;;;;;;10.75;77.76;100641.34;6119639;28;20630;-72
2023/03/22 07:12:48;;;;;;;4.17;3.70;;;;;;;10.79;77.90;100647.94;6120919;28;20225;-70
2023/03/22 07:16:12;;;;;;;3.77;3.10;;;;;;;10.77;78.17;100649.91;6130383;28;20845;-71
2023/03/22 07:19:37;;;;;;;5.63;3.90;;;;;;;10.79;78.05;100645.28;6118936;28;20241;-73
2023/03/22 07:23:02;;;;;;;5.30;3.83;;;;;;;10.84;78.00;100635.84;6110455;28;20236;-70
2023/03/22 07:26:29;;;;;;;5.80;3.67;;;;;;;10.88;78.03;100631.03;6133765;28;20281;-73
2023/03/22 07:29:52;;;;;;;5.03;4.00;;;;;;;10.80;78.19;100637.19;6156317;28;20266;-73
2023/03/22 07:33:14;;;;;;;5.13;3.20;;;;;;;10.73;78.69;100628.31;6168114;28;20228;-74
2023/03/22 07:36:37;;;;;;;5.63;5.07;;;;;;;10.78;78.75;100623.34;6166568;28;20315;-72
2023/03/22 07:39:59;;;;;;;8.53;3.50;;;;;;;10.87;78.75;100611.72;6185303;28;20229;-73
2023/03/22 07:43:24;;;;;;;7.90;4.80;;;;;;;10.87;78.68;100621.44;6166058;28;20229;-73
2023/03/22 07:47:03;;;;;;;8.97;4.17;;;;;;;10.89;78.84;100622.94;6193107;28;20235;-70
2023/03/22 07:50:32;;;;;;;5.27;4.13;;;;;;;10.88;78.49;100626.56;6187822;28;20228;-72
2023/03/22 07:53:56;;;;;;;11.17;5.47;;;;;;;10.93;78.99;100604.91;6168922;28;20229;-71
2023/03/22 07:57:18;;;;;;;4.53;4.03;;;;;;;11.00;78.83;100597.13;6203089;28;20739;-72
2023/03/22 08:00:44;;;;;;;6.00;4.17;;;;;;;11.07;78.60;100590.13;6184581;28;20233;-74
2023/03/22 08:04:31;;;;;;;5.10;4.40;;;;;;;11.00;78.84;100581.28;6184092;28;20241;-72
2023/03/22 08:08:13;;;;;;;6.90;4.67;;;;;;;11.05;79.10;100563.06;6194352;28;20264;-72
2023/03/22 08:11:35;;;;;;;5.90;4.07;;;;;;;11.14;78.88;100562.81;6207460;28;20986;-69
2023/03/22 08:14:56;;;;;;;10.50;6.07;;;;;;;11.24;78.42;100552.81;6200359;28;20233;-72
2023/03/22 08:18:20;;;;;;;8.03;6.37;;;;;;;11.32;78.28;100543.97;6182419;28;20232;-72
2023/03/22 08:21:40;;;;;;;4.13;3.73;;;;;;;11.32;78.17;100547.44;6201446;28;20237;-71
2023/03/22 08:25:11;;;;;;;11.97;6.23;;;;;;;11.36;77.96;100544.44;6177200;28;20260;-75
2023/03/22 08:28:33;;;;;;;6.63;5.83;;;;;;;11.38;78.34;100522.13;6172678;28;20242;-73
2023/03/22 08:31:55;;;;;;;5.90;4.70;;;;;;;11.42;78.13;100517.28;6184698;28;21720;-71
2023/03/22 08:35:16;;;;;;;5.17;4.53;;;;;;;11.49;77.71;100532.25;6193443;28;20244;-73
2023/03/22 08:38:37;;;;;;;6.63;5.83;;;;;;;11.50;77.85;100522.50;6198684;28;20627;-72
2023/03/22 08:42:02;;;;;;;19.57;4.57;;;;;;;11.69;77.21;100521.13;6198251;28;20236;-70
2023/03/22 08:45:24;;;;;;;6.67;4.93;;;;;;;11.77;76.88;100511.28;6202519;28;20237;-70
2023/03/22 08:48:52;;;;;;;6.97;5.10;;;;;;;12.06;75.78;100521.00;6199806;28;20229;-70
2023/03/22 08:52:20;;;;;;;5.57;3.80;;;;;;;12.36;74.49;100513.00;6195890;28;20239;-72
2023/03/22 08:56:00;;;;;;;8.40;5.17;;;;;;;12.51;73.21;100522.50;6192085;28;20228;-74
2023/03/22 08:59:37;;;;;;;6.43;4.50;;;;;;;12.29;74.60;100515.56;6198426;28;20254;-73
2023/03/22 09:03:19;;;;;;;3.87;3.47;;;;;;;12.54;72.78;100503.59;6192704;28;20233;-73
2023/03/22 09:06:41;;;;;;;6.27;5.77;;;;;;;12.60;71.70;100515.25;6202864;28;20614;-74
2023/03/22 09:10:05;;;;;;;5.93;3.93;;;;;;;12.74;70.70;100487.06;6203016;28;20354;-74
2023/03/22 09:13:29;;;;;;;3.83;3.27;;;;;;;12.74;69.80;100511.72;6188661;28;20240;-71
2023/03/22 09:16:55;;;;;;;4.27;3.77;;;;;;;13.08;68.16;100486.31;6203791;28;20603;-72
2023/03/22 09:20:17;;;;;;;7.40;5.33;;;;;;;13.25;67.72;100483.19;6189284;28;20237;-71
2023/03/22 09:23:41;;;;;;;4.03;3.63;;;;;;;13.57;66.62;100480.91;6193721;28;20512;-73
2023/03/22 09:27:04;;;;;;;4.53;3.33;;;;;;;13.55;65.35;100480.31;6212441;28;20236;-74
2023/03/22 09:30:26;;;;;;;3.93;3.23;;;;;;;13.71;64.82;100485.28;6207506;28;20241;-71
2023/03/22 09:33:48;;;;;;;4.33;3.83;;;;;;;13.52;65.29;100468.25;6198685;28;20505;-72
2023/03/22 09:37:11;;;;;;;3.80;3.47;;;;;;;13.18;65.82;100470.91;6190134;28;20225;-73
2023/03/22 09:40:52;;;;;;;4.67;4.00;;;;;;;13.10;65.83;100473.69;6203669;28;20234;-73
2023/03/22 09:44:21;;;;;;;5.33;3.43;;;;;;;13.10;65.66;100471.03;6192117;28;20232;-71
2023/03/22 09:47:45;;;;;;;3.67;3.07;;;;;;;13.18;65.00;100471.72;6197880;28;20239;-72
2023/03/22 09:51:23;;;;;;;4.37;2.77;;;;;;;13.16;64.92;100452.53;6187792;28;20552;-73
2023/03/22 09:54:46;;;;;;;3.23;2.93;;;;;;;13.16;64.80;100463.16;6194945;28;20316;-72
2023/03/22 09:58:18;;;;;;;4.67;3.23;;;;;;;13.07;64.71;100452.88;6212405;28;20241;-72
2023/03/22 10:01:45;;;;;;;3.87;2.53;;;;;;;13.17;64.55;100462.13;6197055;28;20756;-73
2023/03/22 10:05:18;;;;;;;6.07;3.10;;;;;;;13.28;63.45;100447.53;6206707;28;20231;-72
2023/03/22 10:08:50;;;;;;;6.27;2.73;;;;;;;13.21;63.21;100458.09;6195557;28;20248;-72
2023/03/22 10:12:18;;;;;;;2.60;2.40;;;;;;;13.23;63.13;100445.47;6189926;28;20229;-73
2023/03/22 10:15:42;;;;;;;5.37;2.87;;;;;;;13.25;62.39;100464.66;6192057;28;20241;-75
2023/03/22 10:19:12;;;;;;;4.53;2.20;;;;;;;13.49;62.20;100439.47;6223597;28;20233;-73
2023/03/22 10:22:36;;;;;;;5.83;2.50;;;;;;;13.46;62.23;100444.34;6214000;28;20220;-73
2023/03/22 10:26:01;;;;;;;4.10;2.63;;;;;;;13.30;62.54;100446.31;6204067;28;20232;-74
2023/03/22 10:29:26;;;;;;;4.07;2.90;;;;;;;13.26;62.48;100446.91;6212571;28;21104;-76
2023/03/22 10:32:55;;;;;;;1.90;1.53;;;;;;;13.34;62.17;100449.38;6185727;28;20568;-74
2023/03/22 10:36:21;;;;;;;3.37;1.97;;;;;;;13.28;62.67;100453.66;6193612;28;20224;-74
2023/03/22 10:39:45;;;;;;;1.97;1.73;;;;;;;13.32;62.03;100462.84;6207795;28;20233;-73
2023/03/22 10:43:16;;;;;;;4.77;3.00;;;;;;;13.50;60.71;100469.47;6205004;28;20673;-75
2023/03/22 10:46:39;;;;;;;5.87;1.47;;;;;;;13.43;59.83;100465.94;6199731;28;20228;-74
2023/03/22 10:50:04;;;;;;;2.77;2.37;;;;;;;13.45;59.89;100454.13;6199968;28;20595;-73
2023/03/22 10:53:32;;;;;;;10.30;1.80;;;;;;;13.54;59.42;100458.28;6179271;28;20748;-77
2023/03/22 10:56:53;;;;;;;3.03;2.73;;;;;;;13.59;59.15;100478.88;6182521;28;20224;-75
2023/03/22 11:00:17;;;;;;;2.23;1.70;;;;;;;13.88;58.11;100459.22;6195769;28;20229;-74
2023/03/22 11:03:40;;;;;;;2.93;1.60;;;;;;;13.72;58.47;100451.59;6196989;28;20317;-74
2023/03/22 11:07:01;;;;;;;2.63;1.57;;;;;;;13.71;58.25;100476.50;6187941;28;20240;-73
2023/03/22 11:10:31;;;;;;;2.40;1.50;;;;;;;13.69;57.75;100444.84;6202865;28;20233;-74
2023/03/22 11:13:56;;;;;;;2.03;1.40;;;;;;;13.68;57.82;100461.78;6207269;28;20216;-75
2023/03/22 11:17:21;;;;;;;1.77;1.53;;;;;;;13.83;58.03;100457.16;6198287;28;20224;-74
2023/03/22 11:20:53;;;;;;;2.23;1.93;;;;;;;14.14;56.85;100453.16;6202016;28;20319;-75
2023/03/22 11:24:15;;;;;;;2.27;1.80;;;;;;;13.82;57.84;100462.66;6212258;28;20248;-73
2023/03/22 11:27:36;;;;;;;2.97;2.70;;;;;;;13.84;58.17;100452.66;6206230;28;20240;-74
2023/03/22 11:31:03;;;;;;;4.47;2.90;;;;;;;13.93;56.95;100470.88;6193376;28;20229;-75
2023/03/22 11:34:28;;;;;;;4.53;2.57;;;;;;;13.64;57.50;100464.00;6203337;28;20237;-75
2023/03/22 11:37:52;;;;;;;2.07;1.87;;;;;;;13.74;57.04;100478.75;6209337;28;20220;-73
2023/03/22 11:41:21;;;;;;;1.53;1.43;;;;;;;13.70;57.39;100480.97;6179846;28;20229;-71
2023/03/22 11:44:44;;;;;;;7.50;3.00;;;;;;;13.63;57.05;100465.03;6192704;28;20440;-73
2023/03/22 11:48:07;;;;;;;4.97;2.70;;;;;;;13.56;56.51;100473.97;6180390;28;20245;-74
2023/03/22 11:51:33;;;;;;;2.30;2.10;;;;;;;13.58;56.27;100462.16;6183629;28;20224;-77
2023/03/22 11:54:58;;;;;;;2.67;2.40;;;;;;;13.61;56.43;100469.72;6207111;28;20256;-75
2023/03/22 11:58:27;;;;;;;2.93;2.13;;;;;;;13.60;56.52;100473.38;6201549;28;20221;-73
2023/03/22 12:01:52;;;;;;;7.17;2.77;;;;;;;13.55;56.89;100457.25;6191187;28;20239;-74
2023/03/22 12:05:19;;;;;;;2.80;2.60;;;;;;;13.53;57.82;100453.16;6197987;28;20316;-74
2023/03/22 12:08:45;;;;;;;5.13;1.67;;;;;;;13.59;58.19;100457.66;6203199;28;20245;-72
2023/03/22 12:12:13;;;;;;;4.47;2.20;;;;;;;13.58;58.10;100453.38;6200993;28;20224;-79
2023/03/22 12:15:38;;;;;;;4.03;2.50;;;;;;;13.67;58.47;100447.72;6199282;28;20236;-72
2023/03/22 12:19:09;;;;;;;2.30;2.03;;;;;;;13.52;57.99;100443.56;6221219;28;20662;-78
2023/03/22 12:22:33;;;;;;;5.97;2.23;;;;;;;13.50;57.75;100445.59;6205576;28;20236;-74
2023/03/22 12:25:58;;;;;;;2.30;2.10;;;;;;;13.57;57.36;100454.38;6195091;28;20229;-72
2023/03/22 12:29:20;;;;;;;2.63;2.00;;;;;;;13.61;56.72;100460.94;6214262;28;20244;-71
2023/03/22 12:32:44;;;;;;;2.97;2.00;;;;;;;13.53;56.62;100430.13;6199529;28;20240;-75
2023/03/22 12:36:07;;;;;;;3.77;3.00;;;;;;;13.55;56.60;100438.69;6198409;28;20224;-74
2023/03/22 12:39:33;;;;;;;1.90;1.80;;;;;;;13.56;56.38;100426.22;6207616;28;20240;-71
2023/03/22 12:43:03;;;;;;;3.63;2.63;;;;;;;13.62;56.03;100446.66;6185545;28;20324;-74
2023/03/22 12:46:29;;;;;;;2.07;1.97;;;;;;;13.62;55.75;100430.75;6194172;28;20252;-71
2023/03/22 12:49:56;;;;;;;3.90;2.87;;;;;;;13.67;56.00;100444.25;6207872;28;20230;-70
2023/03/22 12:53:19;;;;;;;4.23;2.40;;;;;;;13.53;55.69;100456.63;6171001;28;20234;-73
2023/03/22 12:56:43;;;;;;;3.23;2.37;;;;;;;13.40;56.96;100438.00;6205250;28;20264;-73
2023/03/22 13:00:16;;;;;;;2.93;2.70;;;;;;;13.12;60.27;100445.97;6202101;28;20233;-75
2023/03/22 13:03:43;;;;;;;3.37;3.00;;;;;;;12.56;62.69;100459.22;6205025;28;20284;-72
2023/03/22 13:07:15;;;;;;;3.33;3.03;;;;;;;12.81;62.00;100434.97;6205188;28;20716;-74
2023/03/22 13:10:47;;;;;;;2.63;2.47;;;;;;;12.82;62.32;100455.16;6189872;28;20749;-72
2023/03/22 13:14:13;;;;;;;3.63;2.77;;;;;;;12.68;62.20;100472.75;6207777;28;20245;-75
2023/03/22 13:17:43;;;;;;;2.87;2.67;;;;;;;12.71;63.09;100447.72;6188287;28;20272;-72
2023/03/22 13:21:15;;;;;;;4.63;2.73;;;;;;;12.68;62.92;100460.31;6197947;28;20228;-74
2023/03/22 13:24:59;;;;;;;3.20;2.93;;;;;;;12.52;64.48;100467.72;6210477;28;20233;-72
2023/03/22 13:28:25;;;;;;;4.63;3.10;;;;;;;12.48;64.11;100469.94;6205931;28;20237;-74
2023/03/22 13:31:53;;;;;;;4.13;3.57;;;;;;;12.54;64.96;100477.13;6193848;28;20229;-71
2023/03/22 13:35:23;;;;;;;10.83;4.27;;;;;;;12.37;64.49;100464.34;6204813;28;20255;-72
2023/03/22 13:38:54;;;;;;;3.67;3.37;;;;;;;12.39;64.50;100460.50;6198340;28;20232;-72
2023/03/22 13:42:19;;;;;;;2.33;2.23;;;;;;;12.45;64.65;100456.25;6209353;28;20216;-72
2023/03/22 13:46:02;;;;;;;3.57;3.27;;;;;;;12.39;64.29;100460.50;6196083;28;22576;-73
2023/03/22 13:49:40;;;;;;;4.07;3.67;;;;;;;12.37;64.69;100459.88;6181697;28;20237;-72
2023/03/22 13:53:07;;;;;;;5.80;3.27;;;;;;;12.40;65.30;100456.03;6207442;28;20233;-73
2023/03/22 13:56:33;;;;;;;4.10;3.70;;;;;;;12.46;65.28;100456.06;6194803;28;20241;-74
2023/03/22 14:00:01;;;;;;;3.17;2.87;;;;;;;12.39;65.89;100457.84;6202832;28;20237;-72
2023/03/22 14:03:30;;;;;;;4.07;3.67;;;;;;;12.39;65.70;100443.78;6203856;28;20560;-75
2023/03/22 14:06:54;;;;;;;3.60;2.97;;;;;;;12.39;65.91;100484.31;6193865;28;20256;-73
2023/03/22 14:10:20;;;;;;;3.47;3.17;;;;;;;12.41;65.19;100458.47;6201551;28;20232;-72
2023/03/22 14:13:45;;;;;;;4.00;3.60;;;;;;;12.39;64.66;100472.91;6201796;28;20237;-75
2023/03/22 14:17:16;;;;;;;6.70;2.83;;;;;;;12.40;64.04;100504.50;6183640;28;20883;-72
2023/03/22 14:20:39;;;;;;;6.07;3.40;;;;;;;12.40;64.27;100475.38;6178167;28;20228;-72
2023/03/22 14:24:02;;;;;;;2.80;2.60;;;;;;;12.41;64.32;100478.84;6185680;28;20241;-72
2023/03/22 14:27:24;;;;;;;4.63;4.23;;;;;;;12.44;64.64;100462.56;6203821;28;20237;-72
2023/03/22 14:30:45;;;;;;;2.67;2.47;;;;;;;12.39;64.65;100470.25;6190534;28;20237;-73
2023/03/22 14:34:14;;;;;;;3.93;3.37;;;;;;;12.40;64.95;100448.09;6209522;28;20314;-76
2023/03/22 14:37:35;;;;;;;2.23;2.13;;;;;;;12.42;64.72;100460.13;6206619;28;20224;-72
2023/03/22 14:41:07;;;;;;;3.37;3.17;;;;;;;12.49;65.04;100439.81;6208189;28;20614;-73
2023/03/22 14:44:38;;;;;;;3.10;2.90;;;;;;;12.56;64.47;100435.38;6191962;28;20232;-72
2023/03/22 14:48:01;;;;;;;3.73;3.33;;;;;;;12.57;64.85;100450.28;6184033;28;20236;-71
2023/03/22 14:51:28;;;;;;;6.57;3.77;;;;;;;12.57;64.46;100467.97;6191123;28;20256;-73
2023/03/22 14:54:50;;;;;;;3.43;3.17;;;;;;;12.49;64.59;100473.41;6200024;28;20233;-73
2023/03/22 14:58:14;;;;;;;3.17;2.90;;;;;;;12.44;63.93;100466.03;6201302;28;20326;-71
2023/03/22 15:01:40;;;;;;;4.23;2.70;;;;;;;12.41;63.98;100466.44;6180777;28;20228;-72
2023/03/22 15:05:06;;;;;;;3.50;2.30;;;;;;;12.41;63.76;100470.91;6184064;28;20260;-73
2023/03/22 15:08:31;;;;;;;2.70;2.23;;;;;;;12.41;63.51;100460.31;6189556;28;20229;-71
2023/03/22 15:11:59;;;;;;;5.47;2.90;;;;;;;12.36;63.50;100468.00;6200737;28;20350;-73
2023/03/22 15:15:25;;;;;;;5.60;2.73;;;;;;;12.33;63.16;100464.72;6188634;28;20241;-74
2023/03/22 15:18:50;;;;;;;3.70;2.90;;;;;;;12.36;63.89;100463.53;6203310;28;21790;-72
2023/03/22 15:22:13;;;;;;;5.17;2.83;;;;;;;12.35;63.47;100459.22;6188815;28;20237;-73
2023/03/22 15:25:35;;;;;;;4.70;3.97;;;;;;;12.37;63.39;100462.50;6186302;28;20230;-75
2023/03/22 15:29:01;;;;;;;6.93;2.80;;;;;;;12.41;63.29;100465.59;6211486;28;20634;-72
2023/03/22 15:32:24;;;;;;;5.60;2.40;;;;;;;12.40;63.27;100463.97;6203681;28;20224;-72
2023/03/22 15:35:46;;;;;;;6.40;2.73;;;;;;;12.39;63.70;100463.16;6184935;28;20339;-72
2023/03/22 15:39:18;;;;;;;3.73;2.73;;;;;;;12.39;63.55;100463.16;6193623;28;20230;-75
2023/03/22 15:42:41;;;;;;;2.47;2.27;;;;;;;12.37;63.79;100467.81;6196707;28;20249;-73
2023/03/22 15:46:17;;;;;;;2.87;2.40;;;;;;;12.37;63.99;100475.75;6164733;28;20232;-75
2023/03/22 15:49:40;;;;;;;4.33;2.23;;;;;;;12.39;64.16;100475.56;6200348;28;20469;-73
2023/03/22 15:53:02;;;;;;;2.63;2.43;;;;;;;12.39;63.81;100463.16;6210619;28;20225;-72
2023/03/22 15:56:26;;;;;;;3.30;3.00;;;;;;;12.36;63.83;100452.94;6207724;28;20673;-72
2023/03/22 15:59:53;;;;;;;4.00;3.23;;;;;;;12.36;63.79;100468.81;6215813;28;20213;-73
2023/03/22 16:03:14;;;;;;;3.53;2.83;;;;;;;12.36;64.60;100476.75;6191902;28;20230;-74